sensor_id;sensor_type;location;lat;lon;timestamp;temperature;humidity
52979;DHT22;63430;53.186;6.598;2023-05-07T00:01:15;12.20;99.90
52979;DHT22;63430;53.186;6.598;2023-05-07T00:03:19;12.20;99.90
52979;DHT22;63430;53.186;6.598;2023-05-07T00:05:23;12.20;99.90
52979;DHT22;63430;53.186;6.598;2023-05-07T00:07:25;12.20;99.90
52979;DHT22;63430;53.186;6.598;2023-05-07T00:09:32;12.10;99.90
52979;DHT22;63430;53.186;6.598;2023-05-07T00:11:34;12.20;99.90
52979;DHT22;63430;53.186;6.598;2023-05-07T00:13:38;12.10;99.90
52979;DHT22;63430;53.186;6.598;2023-05-07T00:15:41;12.10;99.90
52979;DHT22;63430;53.186;6.598;2023-05-07T00:17:43;12.80;99.90
52979;DHT22;63430;53.186;6.598;2023-05-07T00:19:46;12.10;99.90
52979;DHT22;63430;53.186;6.598;2023-05-07T00:21:49;12.10;99.90
52979;DHT22;63430;53.186;6.598;2023-05-07T00:23:51;12.10;99.90
52979;DHT22;63430;53.186;6.598;2023-05-07T00:25:56;12.10;99.90
52979;DHT22;63430;53.186;6.598;2023-05-07T00:27:59;12.10;99.90
52979;DHT22;63430;53.186;6.598;2023-05-07T00:30:07;12.10;99.90
52979;DHT22;63430;53.186;6.598;2023-05-07T00:32:09;12.00;99.90
52979;DHT22;63430;53.186;6.598;2023-05-07T00:34:12;12.00;99.90
52979;DHT22;63430;53.186;6.598;2023-05-07T00:36:15;12.00;99.90
52979;DHT22;63430;53.186;6.598;2023-05-07T00:38:18;12.00;99.90
52979;DHT22;63430;53.186;6.598;2023-05-07T00:40:20;12.50;99.90
52979;DHT22;63430;53.186;6.598;2023-05-07T00:42:26;12.00;99.90
52979;DHT22;63430;53.186;6.598;2023-05-07T00:44:28;12.00;99.90
52979;DHT22;63430;53.186;6.598;2023-05-07T00:46:32;12.00;99.90
52979;DHT22;63430;53.186;6.598;2023-05-07T00:48:36;12.00;99.90
52979;DHT22;63430;53.186;6.598;2023-05-07T00:50:38;12.60;99.90
52979;DHT22;63430;53.186;6.598;2023-05-07T00:52:41;11.90;99.90
52979;DHT22;63430;53.186;6.598;2023-05-07T00:54:44;11.90;99.90
52979;DHT22;63430;53.186;6.598;2023-05-07T00:56:48;11.90;99.90
52979;DHT22;63430;53.186;6.598;2023-05-07T00:58:53;11.90;99.90
52979;DHT22;63430;53.186;6.598;2023-05-07T01:00:57;11.90;99.90
52979;DHT22;63430;53.186;6.598;2023-05-07T01:03:00;11.90;99.90
52979;DHT22;63430;53.186;6.598;2023-05-07T01:05:05;11.90;99.90
52979;DHT22;63430;53.186;6.598;2023-05-07T01:07:09;11.80;99.90
52979;DHT22;63430;53.186;6.598;2023-05-07T01:09:12;11.80;99.90
52979;DHT22;63430;53.186;6.598;2023-05-07T01:11:15;11.80;99.90
52979;DHT22;63430;53.186;6.598;2023-05-07T01:13:19;11.80;99.90
52979;DHT22;63430;53.186;6.598;2023-05-07T01:15:25;11.80;99.90
52979;DHT22;63430;53.186;6.598;2023-05-07T01:17:28;11.80;99.90
52979;DHT22;63430;53.186;6.598;2023-05-07T01:19:31;11.70;99.90
52979;DHT22;63430;53.186;6.598;2023-05-07T01:21:37;11.70;99.90
52979;DHT22;63430;53.186;6.598;2023-05-07T01:23:46;11.70;99.90
52979;DHT22;63430;53.186;6.598;2023-05-07T01:25:52;11.70;99.90
52979;DHT22;63430;53.186;6.598;2023-05-07T01:27:57;11.70;99.90
52979;DHT22;63430;53.186;6.598;2023-05-07T01:30:05;11.70;99.90
52979;DHT22;63430;53.186;6.598;2023-05-07T01:32:08;11.70;99.90
52979;DHT22;63430;53.186;6.598;2023-05-07T01:34:11;12.20;99.90
52979;DHT22;63430;53.186;6.598;2023-05-07T01:36:15;11.70;99.90
52979;DHT22;63430;53.186;6.598;2023-05-07T01:38:21;11.70;99.90
52979;DHT22;63430;53.186;6.598;2023-05-07T01:40:30;11.70;99.90
52979;DHT22;63430;53.186;6.598;2023-05-07T01:42:33;11.60;99.90
52979;DHT22;63430;53.186;6.598;2023-05-07T01:44:36;11.60;99.90
52979;DHT22;63430;53.186;6.598;2023-05-07T01:46:39;11.60;99.90
52979;DHT22;63430;53.186;6.598;2023-05-07T01:48:42;11.60;99.90
52979;DHT22;63430;53.186;6.598;2023-05-07T01:50:48;11.60;99.90
52979;DHT22;63430;53.186;6.598;2023-05-07T01:52:51;11.60;99.90
52979;DHT22;63430;53.186;6.598;2023-05-07T01:54:54;11.60;99.90
52979;DHT22;63430;53.186;6.598;2023-05-07T01:57:01;11.60;99.90
52979;DHT22;63430;53.186;6.598;2023-05-07T01:59:03;11.60;99.90
52979;DHT22;63430;53.186;6.598;2023-05-07T02:01:06;11.50;99.90
52979;DHT22;63430;53.186;6.598;2023-05-07T02:03:09;11.50;99.90
52979;DHT22;63430;53.186;6.598;2023-05-07T02:05:22;11.70;99.90
52979;DHT22;63430;53.186;6.598;2023-05-07T02:07:32;11.50;99.90
52979;DHT22;63430;53.186;6.598;2023-05-07T02:09:35;11.50;99.90
52979;DHT22;63430;53.186;6.598;2023-05-07T02:11:38;11.40;99.90
52979;DHT22;63430;53.186;6.598;2023-05-07T02:13:46;11.60;99.90
52979;DHT22;63430;53.186;6.598;2023-05-07T02:15:48;11.50;99.90
52979;DHT22;63430;53.186;6.598;2023-05-07T02:18:03;11.40;99.90
52979;DHT22;63430;53.186;6.598;2023-05-07T02:20:08;11.40;99.90
52979;DHT22;63430;53.186;6.598;2023-05-07T02:22:16;11.40;99.90
52979;DHT22;63430;53.186;6.598;2023-05-07T02:24:22;11.40;99.90
52979;DHT22;63430;53.186;6.598;2023-05-07T02:26:25;11.40;99.90
52979;DHT22;63430;53.186;6.598;2023-05-07T02:28:28;11.40;99.90
52979;DHT22;63430;53.186;6.598;2023-05-07T02:30:39;11.60;99.90
52979;DHT22;63430;53.186;6.598;2023-05-07T02:32:43;11.40;99.90
52979;DHT22;63430;53.186;6.598;2023-05-07T02:34:45;11.40;99.90
52979;DHT22;63430;53.186;6.598;2023-05-07T02:36:50;11.30;99.90
52979;DHT22;63430;53.186;6.598;2023-05-07T02:38:56;11.30;99.90
52979;DHT22;63430;53.186;6.598;2023-05-07T02:40:59;11.30;99.90
52979;DHT22;63430;53.186;6.598;2023-05-07T02:43:02;11.30;99.90
52979;DHT22;63430;53.186;6.598;2023-05-07T02:45:06;11.50;99.90
52979;DHT22;63430;53.186;6.598;2023-05-07T02:47:14;11.30;99.90
52979;DHT22;63430;53.186;6.598;2023-05-07T02:49:18;11.30;99.90
52979;DHT22;63430;53.186;6.598;2023-05-07T02:51:22;11.30;99.90
52979;DHT22;63430;53.186;6.598;2023-05-07T02:53:29;11.30;99.90
52979;DHT22;63430;53.186;6.598;2023-05-07T02:55:31;11.30;99.90
52979;DHT22;63430;53.186;6.598;2023-05-07T02:57:35;11.00;99.90
52979;DHT22;63430;53.186;6.598;2023-05-07T02:59:38;11.60;99.90
52979;DHT22;63430;53.186;6.598;2023-05-07T03:01:41;11.30;99.90
52979;DHT22;63430;53.186;6.598;2023-05-07T03:03:49;11.30;99.90
52979;DHT22;63430;53.186;6.598;2023-05-07T03:05:52;11.30;99.90
52979;DHT22;63430;53.186;6.598;2023-05-07T03:07:55;11.30;99.90
52979;DHT22;63430;53.186;6.598;2023-05-07T03:09:57;11.30;99.90
52979;DHT22;63430;53.186;6.598;2023-05-07T03:12:01;11.30;99.90
52979;DHT22;63430;53.186;6.598;2023-05-07T03:14:04;11.20;99.90
52979;DHT22;63430;53.186;6.598;2023-05-07T03:16:07;11.20;99.90
52979;DHT22;63430;53.186;6.598;2023-05-07T03:18:10;11.20;99.90
52979;DHT22;63430;53.186;6.598;2023-05-07T03:20:16;11.20;99.90
52979;DHT22;63430;53.186;6.598;2023-05-07T03:22:19;11.10;99.90
52979;DHT22;63430;53.186;6.598;2023-05-07T03:24:21;11.20;99.90
52979;DHT22;63430;53.186;6.598;2023-05-07T03:26:24;11.20;99.90
52979;DHT22;63430;53.186;6.598;2023-05-07T03:28:27;11.20;99.90
52979;DHT22;63430;53.186;6.598;2023-05-07T03:30:34;11.20;99.90
52979;DHT22;63430;53.186;6.598;2023-05-07T03:32:37;11.00;99.90
52979;DHT22;63430;53.186;6.598;2023-05-07T03:34:42;11.20;99.90
52979;DHT22;63430;53.186;6.598;2023-05-07T03:36:50;11.20;99.90
52979;DHT22;63430;53.186;6.598;2023-05-07T03:38:54;11.20;99.90
52979;DHT22;63430;53.186;6.598;2023-05-07T03:40:59;11.30;99.90
52979;DHT22;63430;53.186;6.598;2023-05-07T03:43:02;11.10;99.90
52979;DHT22;63430;53.186;6.598;2023-05-07T03:45:08;10.90;99.90
52979;DHT22;63430;53.186;6.598;2023-05-07T03:47:11;11.10;99.90
52979;DHT22;63430;53.186;6.598;2023-05-07T03:49:15;11.00;99.90
52979;DHT22;63430;53.186;6.598;2023-05-07T03:51:18;11.00;99.90
52979;DHT22;63430;53.186;6.598;2023-05-07T03:53:23;11.40;99.90
52979;DHT22;63430;53.186;6.598;2023-05-07T03:55:26;11.00;99.90
52979;DHT22;63430;53.186;6.598;2023-05-07T03:57:33;11.00;99.90
52979;DHT22;63430;53.186;6.598;2023-05-07T03:59:36;11.00;99.90
52979;DHT22;63430;53.186;6.598;2023-05-07T04:01:40;11.00;99.90
52979;DHT22;63430;53.186;6.598;2023-05-07T04:03:42;10.90;99.90
52979;DHT22;63430;53.186;6.598;2023-05-07T04:05:46;10.90;99.90
52979;DHT22;63430;53.186;6.598;2023-05-07T04:07:49;10.90;99.90
52979;DHT22;63430;53.186;6.598;2023-05-07T04:09:59;10.90;99.90
52979;DHT22;63430;53.186;6.598;2023-05-07T04:12:02;10.90;99.90
52979;DHT22;63430;53.186;6.598;2023-05-07T04:14:05;10.90;99.90
52979;DHT22;63430;53.186;6.598;2023-05-07T04:16:08;11.20;99.90
52979;DHT22;63430;53.186;6.598;2023-05-07T04:18:12;10.80;99.90
52979;DHT22;63430;53.186;6.598;2023-05-07T04:20:18;11.40;99.90
52979;DHT22;63430;53.186;6.598;2023-05-07T04:22:28;10.80;99.90
52979;DHT22;63430;53.186;6.598;2023-05-07T04:24:31;10.80;99.90
52979;DHT22;63430;53.186;6.598;2023-05-07T04:26:38;10.80;99.90
52979;DHT22;63430;53.186;6.598;2023-05-07T04:28:43;10.80;99.90
52979;DHT22;63430;53.186;6.598;2023-05-07T04:30:47;10.80;99.90
52979;DHT22;63430;53.186;6.598;2023-05-07T04:32:49;10.80;99.90
52979;DHT22;63430;53.186;6.598;2023-05-07T04:34:52;10.80;99.90
52979;DHT22;63430;53.186;6.598;2023-05-07T04:36:58;10.80;99.90
52979;DHT22;63430;53.186;6.598;2023-05-07T04:39:02;10.80;99.90
52979;DHT22;63430;53.186;6.598;2023-05-07T04:41:06;10.80;99.90
52979;DHT22;63430;53.186;6.598;2023-05-07T04:43:16;10.80;99.90
52979;DHT22;63430;53.186;6.598;2023-05-07T04:45:25;10.80;99.90
52979;DHT22;63430;53.186;6.598;2023-05-07T04:47:35;11.00;99.90
52979;DHT22;63430;53.186;6.598;2023-05-07T04:49:38;10.80;99.90
52979;DHT22;63430;53.186;6.598;2023-05-07T04:51:41;10.80;99.90
52979;DHT22;63430;53.186;6.598;2023-05-07T04:53:47;10.80;99.90
52979;DHT22;63430;53.186;6.598;2023-05-07T04:55:55;10.70;99.90
52979;DHT22;63430;53.186;6.598;2023-05-07T04:58:00;10.80;99.90
52979;DHT22;63430;53.186;6.598;2023-05-07T05:00:11;10.80;99.90
52979;DHT22;63430;53.186;6.598;2023-05-07T05:02:19;10.70;99.90
52979;DHT22;63430;53.186;6.598;2023-05-07T05:04:22;10.70;99.90
52979;DHT22;63430;53.186;6.598;2023-05-07T05:06:25;10.70;99.90
52979;DHT22;63430;53.186;6.598;2023-05-07T05:08:30;10.80;99.90
52979;DHT22;63430;53.186;6.598;2023-05-07T05:10:34;10.80;99.90
52979;DHT22;63430;53.186;6.598;2023-05-07T05:12:37;10.80;99.90
52979;DHT22;63430;53.186;6.598;2023-05-07T05:14:40;10.90;99.90
52979;DHT22;63430;53.186;6.598;2023-05-07T05:16:45;10.80;99.90
52979;DHT22;63430;53.186;6.598;2023-05-07T05:18:49;10.80;99.90
52979;DHT22;63430;53.186;6.598;2023-05-07T05:20:54;10.80;99.90
52979;DHT22;63430;53.186;6.598;2023-05-07T05:22:56;10.80;99.90
52979;DHT22;63430;53.186;6.598;2023-05-07T05:24:59;10.80;99.90
52979;DHT22;63430;53.186;6.598;2023-05-07T05:27:03;10.80;99.90
52979;DHT22;63430;53.186;6.598;2023-05-07T05:29:08;10.80;99.90
52979;DHT22;63430;53.186;6.598;2023-05-07T05:31:16;10.80;99.90
52979;DHT22;63430;53.186;6.598;2023-05-07T05:33:21;10.80;99.90
52979;DHT22;63430;53.186;6.598;2023-05-07T05:35:24;10.80;99.90
52979;DHT22;63430;53.186;6.598;2023-05-07T05:37:26;10.80;99.90
52979;DHT22;63430;53.186;6.598;2023-05-07T05:39:29;10.80;99.90
52979;DHT22;63430;53.186;6.598;2023-05-07T05:41:32;10.80;99.90
52979;DHT22;63430;53.186;6.598;2023-05-07T05:43:36;11.20;99.90
52979;DHT22;63430;53.186;6.598;2023-05-07T05:45:38;10.80;99.90
52979;DHT22;63430;53.186;6.598;2023-05-07T05:47:41;10.80;99.90
52979;DHT22;63430;53.186;6.598;2023-05-07T05:49:46;10.80;99.90
52979;DHT22;63430;53.186;6.598;2023-05-07T05:51:51;10.80;99.90
52979;DHT22;63430;53.186;6.598;2023-05-07T05:53:55;10.80;99.90
52979;DHT22;63430;53.186;6.598;2023-05-07T05:55:59;11.60;99.90
52979;DHT22;63430;53.186;6.598;2023-05-07T05:58:01;10.80;99.90
52979;DHT22;63430;53.186;6.598;2023-05-07T06:00:09;11.50;99.90
52979;DHT22;63430;53.186;6.598;2023-05-07T06:02:21;10.80;99.90
52979;DHT22;63430;53.186;6.598;2023-05-07T06:04:27;10.80;99.90
52979;DHT22;63430;53.186;6.598;2023-05-07T06:06:32;10.80;99.90
52979;DHT22;63430;53.186;6.598;2023-05-07T06:08:36;10.80;99.90
52979;DHT22;63430;53.186;6.598;2023-05-07T06:10:39;11.40;99.90
52979;DHT22;63430;53.186;6.598;2023-05-07T06:12:43;10.90;99.90
52979;DHT22;63430;53.186;6.598;2023-05-07T06:14:46;10.90;99.90
52979;DHT22;63430;53.186;6.598;2023-05-07T06:16:48;10.90;99.90
52979;DHT22;63430;53.186;6.598;2023-05-07T06:18:51;10.90;99.90
52979;DHT22;63430;53.186;6.598;2023-05-07T06:20:55;10.90;99.90
52979;DHT22;63430;53.186;6.598;2023-05-07T06:23:04;10.90;99.90
52979;DHT22;63430;53.186;6.598;2023-05-07T06:25:09;10.90;99.90
52979;DHT22;63430;53.186;6.598;2023-05-07T06:27:12;11.00;99.90
52979;DHT22;63430;53.186;6.598;2023-05-07T06:29:16;10.90;99.90
52979;DHT22;63430;53.186;6.598;2023-05-07T06:31:19;11.00;99.90
52979;DHT22;63430;53.186;6.598;2023-05-07T06:33:38;11.00;99.90
52979;DHT22;63430;53.186;6.598;2023-05-07T06:35:41;11.00;99.90
52979;DHT22;63430;53.186;6.598;2023-05-07T06:37:44;11.00;99.90
52979;DHT22;63430;53.186;6.598;2023-05-07T06:39:54;11.80;99.90
52979;DHT22;63430;53.186;6.598;2023-05-07T06:42:00;11.00;99.90
52979;DHT22;63430;53.186;6.598;2023-05-07T06:44:06;11.00;99.90
52979;DHT22;63430;53.186;6.598;2023-05-07T06:46:21;11.00;99.90
52979;DHT22;63430;53.186;6.598;2023-05-07T06:48:24;11.00;99.90
52979;DHT22;63430;53.186;6.598;2023-05-07T06:50:34;10.90;99.90
52979;DHT22;63430;53.186;6.598;2023-05-07T06:52:36;11.00;99.90
52979;DHT22;63430;53.186;6.598;2023-05-07T06:54:40;11.00;99.90
52979;DHT22;63430;53.186;6.598;2023-05-07T06:56:46;11.40;99.90
52979;DHT22;63430;53.186;6.598;2023-05-07T06:58:48;11.00;99.90
52979;DHT22;63430;53.186;6.598;2023-05-07T07:00:52;11.10;99.90
52979;DHT22;63430;53.186;6.598;2023-05-07T07:02:55;11.10;99.90
52979;DHT22;63430;53.186;6.598;2023-05-07T07:05:01;11.10;99.90
52979;DHT22;63430;53.186;6.598;2023-05-07T07:07:07;11.10;99.90
52979;DHT22;63430;53.186;6.598;2023-05-07T07:09:10;11.10;99.90
52979;DHT22;63430;53.186;6.598;2023-05-07T07:11:13;11.10;99.90
52979;DHT22;63430;53.186;6.598;2023-05-07T07:13:20;11.20;99.90
52979;DHT22;63430;53.186;6.598;2023-05-07T07:15:23;11.20;99.90
52979;DHT22;63430;53.186;6.598;2023-05-07T07:17:29;11.20;99.90
52979;DHT22;63430;53.186;6.598;2023-05-07T07:19:31;11.20;99.90
52979;DHT22;63430;53.186;6.598;2023-05-07T07:21:38;11.10;99.90
52979;DHT22;63430;53.186;6.598;2023-05-07T07:23:40;11.20;99.90
52979;DHT22;63430;53.186;6.598;2023-05-07T07:25:43;11.20;99.90
52979;DHT22;63430;53.186;6.598;2023-05-07T07:27:46;11.20;99.90
52979;DHT22;63430;53.186;6.598;2023-05-07T07:29:52;11.10;99.90
52979;DHT22;63430;53.186;6.598;2023-05-07T07:31:55;11.20;99.90
52979;DHT22;63430;53.186;6.598;2023-05-07T07:33:58;11.20;99.90
52979;DHT22;63430;53.186;6.598;2023-05-07T07:36:00;11.20;99.90
52979;DHT22;63430;53.186;6.598;2023-05-07T07:38:03;11.20;99.90
52979;DHT22;63430;53.186;6.598;2023-05-07T07:40:07;11.30;99.90
52979;DHT22;63430;53.186;6.598;2023-05-07T07:42:11;11.30;99.90
52979;DHT22;63430;53.186;6.598;2023-05-07T07:44:14;11.30;99.90
52979;DHT22;63430;53.186;6.598;2023-05-07T07:46:24;11.30;99.90
52979;DHT22;63430;53.186;6.598;2023-05-07T07:48:28;11.40;99.90
52979;DHT22;63430;53.186;6.598;2023-05-07T07:50:31;11.40;99.90
52979;DHT22;63430;53.186;6.598;2023-05-07T07:52:48;11.50;99.90
52979;DHT22;63430;53.186;6.598;2023-05-07T07:54:52;11.50;99.90
52979;DHT22;63430;53.186;6.598;2023-05-07T07:56:56;11.60;99.90
52979;DHT22;63430;53.186;6.598;2023-05-07T07:58:59;11.70;99.90
52979;DHT22;63430;53.186;6.598;2023-05-07T08:01:03;11.70;99.90
52979;DHT22;63430;53.186;6.598;2023-05-07T08:03:09;11.80;99.90
52979;DHT22;63430;53.186;6.598;2023-05-07T08:05:16;11.90;99.90
52979;DHT22;63430;53.186;6.598;2023-05-07T08:07:19;12.00;99.90
52979;DHT22;63430;53.186;6.598;2023-05-07T08:09:27;12.20;99.90
52979;DHT22;63430;53.186;6.598;2023-05-07T08:11:32;12.00;99.90
52979;DHT22;63430;53.186;6.598;2023-05-07T08:13:36;12.10;99.90
52979;DHT22;63430;53.186;6.598;2023-05-07T08:15:39;12.00;99.90
52979;DHT22;63430;53.186;6.598;2023-05-07T08:17:44;12.00;99.90
52979;DHT22;63430;53.186;6.598;2023-05-07T08:19:49;12.00;99.90
52979;DHT22;63430;53.186;6.598;2023-05-07T08:21:52;12.10;99.90
52979;DHT22;63430;53.186;6.598;2023-05-07T08:23:59;12.10;99.90
52979;DHT22;63430;53.186;6.598;2023-05-07T08:26:03;12.20;99.90
52979;DHT22;63430;53.186;6.598;2023-05-07T08:28:07;12.20;99.90
52979;DHT22;63430;53.186;6.598;2023-05-07T08:30:13;12.60;99.90
52979;DHT22;63430;53.186;6.598;2023-05-07T08:32:17;12.30;99.90
52979;DHT22;63430;53.186;6.598;2023-05-07T08:34:21;12.30;99.90
52979;DHT22;63430;53.186;6.598;2023-05-07T08:36:28;12.40;99.90
52979;DHT22;63430;53.186;6.598;2023-05-07T08:38:31;12.50;99.90
52979;DHT22;63430;53.186;6.598;2023-05-07T08:40:38;12.50;99.90
52979;DHT22;63430;53.186;6.598;2023-05-07T08:42:48;12.60;99.90
52979;DHT22;63430;53.186;6.598;2023-05-07T08:44:51;12.60;99.90
52979;DHT22;63430;53.186;6.598;2023-05-07T08:47:01;12.70;99.90
52979;DHT22;63430;53.186;6.598;2023-05-07T08:49:07;12.70;99.90
52979;DHT22;63430;53.186;6.598;2023-05-07T08:51:12;12.70;99.90
52979;DHT22;63430;53.186;6.598;2023-05-07T08:53:23;12.70;99.90
52979;DHT22;63430;53.186;6.598;2023-05-07T08:55:28;12.80;99.90
52979;DHT22;63430;53.186;6.598;2023-05-07T08:57:31;12.80;99.90
52979;DHT22;63430;53.186;6.598;2023-05-07T08:59:34;12.80;99.90
52979;DHT22;63430;53.186;6.598;2023-05-07T09:01:38;12.90;99.90
52979;DHT22;63430;53.186;6.598;2023-05-07T09:03:44;13.20;99.90
52979;DHT22;63430;53.186;6.598;2023-05-07T09:05:48;13.10;99.90
52979;DHT22;63430;53.186;6.598;2023-05-07T09:07:54;13.00;99.90
52979;DHT22;63430;53.186;6.598;2023-05-07T09:10:05;13.30;99.90
52979;DHT22;63430;53.186;6.598;2023-05-07T09:12:10;13.20;99.90
52979;DHT22;63430;53.186;6.598;2023-05-07T09:14:13;13.30;99.90
52979;DHT22;63430;53.186;6.598;2023-05-07T09:16:20;13.40;99.90
52979;DHT22;63430;53.186;6.598;2023-05-07T09:18:26;12.90;99.90
52979;DHT22;63430;53.186;6.598;2023-05-07T09:20:30;13.50;99.90
52979;DHT22;63430;53.186;6.598;2023-05-07T09:22:37;13.50;99.90
52979;DHT22;63430;53.186;6.598;2023-05-07T09:24:47;13.60;99.90
52979;DHT22;63430;53.186;6.598;2023-05-07T09:26:53;13.60;99.90
52979;DHT22;63430;53.186;6.598;2023-05-07T09:28:57;13.60;99.90
52979;DHT22;63430;53.186;6.598;2023-05-07T09:31:00;13.70;99.90
52979;DHT22;63430;53.186;6.598;2023-05-07T09:33:04;13.70;99.90
52979;DHT22;63430;53.186;6.598;2023-05-07T09:35:14;13.80;99.90
52979;DHT22;63430;53.186;6.598;2023-05-07T09:37:20;13.90;99.90
52979;DHT22;63430;53.186;6.598;2023-05-07T09:39:23;13.90;99.90
52979;DHT22;63430;53.186;6.598;2023-05-07T09:41:26;14.00;99.90
52979;DHT22;63430;53.186;6.598;2023-05-07T09:43:44;14.10;99.90
52979;DHT22;63430;53.186;6.598;2023-05-07T09:45:49;14.10;99.90
52979;DHT22;63430;53.186;6.598;2023-05-07T09:47:59;14.10;99.90
52979;DHT22;63430;53.186;6.598;2023-05-07T09:50:06;14.10;99.90
52979;DHT22;63430;53.186;6.598;2023-05-07T09:52:11;14.10;99.90
52979;DHT22;63430;53.186;6.598;2023-05-07T09:54:20;14.20;99.90
52979;DHT22;63430;53.186;6.598;2023-05-07T09:56:27;14.30;99.90
52979;DHT22;63430;53.186;6.598;2023-05-07T09:58:30;14.30;99.90
52979;DHT22;63430;53.186;6.598;2023-05-07T10:00:37;14.40;99.90
52979;DHT22;63430;53.186;6.598;2023-05-07T10:02:52;14.40;99.90
52979;DHT22;63430;53.186;6.598;2023-05-07T10:05:06;14.50;99.90
52979;DHT22;63430;53.186;6.598;2023-05-07T10:07:09;14.50;99.90
52979;DHT22;63430;53.186;6.598;2023-05-07T10:09:12;14.50;99.90
52979;DHT22;63430;53.186;6.598;2023-05-07T10:11:16;14.60;99.90
52979;DHT22;63430;53.186;6.598;2023-05-07T10:13:20;14.30;99.90
52979;DHT22;63430;53.186;6.598;2023-05-07T10:15:28;14.50;99.90
52979;DHT22;63430;53.186;6.598;2023-05-07T10:17:35;14.60;99.90
52979;DHT22;63430;53.186;6.598;2023-05-07T10:19:39;14.50;99.90
52979;DHT22;63430;53.186;6.598;2023-05-07T10:21:49;14.60;99.90
52979;DHT22;63430;53.186;6.598;2023-05-07T10:23:58;14.60;99.90
52979;DHT22;63430;53.186;6.598;2023-05-07T10:26:05;14.60;99.90
52979;DHT22;63430;53.186;6.598;2023-05-07T10:28:10;14.70;99.90
52979;DHT22;63430;53.186;6.598;2023-05-07T10:30:24;14.70;99.90
52979;DHT22;63430;53.186;6.598;2023-05-07T10:32:39;14.70;99.90
52979;DHT22;63430;53.186;6.598;2023-05-07T10:34:48;14.80;99.90
52979;DHT22;63430;53.186;6.598;2023-05-07T10:36:52;14.80;99.90
52979;DHT22;63430;53.186;6.598;2023-05-07T10:38:56;14.80;99.90
52979;DHT22;63430;53.186;6.598;2023-05-07T10:40:59;14.90;99.90
52979;DHT22;63430;53.186;6.598;2023-05-07T10:43:05;14.90;99.90
52979;DHT22;63430;53.186;6.598;2023-05-07T10:45:16;15.00;99.90
52979;DHT22;63430;53.186;6.598;2023-05-07T10:47:24;15.10;99.90
52979;DHT22;63430;53.186;6.598;2023-05-07T10:49:33;15.10;99.90
52979;DHT22;63430;53.186;6.598;2023-05-07T10:51:40;15.20;99.90
52979;DHT22;63430;53.186;6.598;2023-05-07T10:54:18;15.20;99.90
52979;DHT22;63430;53.186;6.598;2023-05-07T10:56:30;15.30;99.90
52979;DHT22;63430;53.186;6.598;2023-05-07T10:58:43;15.40;99.90
52979;DHT22;63430;53.186;6.598;2023-05-07T11:00:57;15.50;99.90
52979;DHT22;63430;53.186;6.598;2023-05-07T11:03:06;15.60;99.90
52979;DHT22;63430;53.186;6.598;2023-05-07T11:05:30;15.60;99.90
52979;DHT22;63430;53.186;6.598;2023-05-07T11:07:56;15.70;99.90
52979;DHT22;63430;53.186;6.598;2023-05-07T11:10:07;15.80;99.90
52979;DHT22;63430;53.186;6.598;2023-05-07T11:12:17;15.90;99.90
52979;DHT22;63430;53.186;6.598;2023-05-07T11:14:44;16.10;99.90
52979;DHT22;63430;53.186;6.598;2023-05-07T11:17:02;16.20;99.90
52979;DHT22;63430;53.186;6.598;2023-05-07T11:19:06;16.20;99.90
52979;DHT22;63430;53.186;6.598;2023-05-07T11:21:32;16.30;99.90
52979;DHT22;63430;53.186;6.598;2023-05-07T11:24:09;16.40;99.90
52979;DHT22;63430;53.186;6.598;2023-05-07T11:26:30;16.30;99.90
52979;DHT22;63430;53.186;6.598;2023-05-07T11:28:37;16.40;99.90
52979;DHT22;63430;53.186;6.598;2023-05-07T11:30:41;16.60;99.90
52979;DHT22;63430;53.186;6.598;2023-05-07T11:32:48;16.60;99.90
52979;DHT22;63430;53.186;6.598;2023-05-07T11:34:52;16.60;99.90
52979;DHT22;63430;53.186;6.598;2023-05-07T11:36:58;16.70;99.90
52979;DHT22;63430;53.186;6.598;2023-05-07T11:39:30;16.80;99.90
52979;DHT22;63430;53.186;6.598;2023-05-07T11:41:34;16.90;99.90
52979;DHT22;63430;53.186;6.598;2023-05-07T11:43:57;17.10;99.90
52979;DHT22;63430;53.186;6.598;2023-05-07T11:46:05;17.40;99.90
52979;DHT22;63430;53.186;6.598;2023-05-07T11:48:09;17.50;99.90
52979;DHT22;63430;53.186;6.598;2023-05-07T11:50:12;17.60;99.90
52979;DHT22;63430;53.186;6.598;2023-05-07T11:52:18;17.60;99.90
52979;DHT22;63430;53.186;6.598;2023-05-07T11:54:21;17.50;99.90
52979;DHT22;63430;53.186;6.598;2023-05-07T11:56:26;17.50;99.90
52979;DHT22;63430;53.186;6.598;2023-05-07T11:58:29;17.60;99.90
52979;DHT22;63430;53.186;6.598;2023-05-07T12:00:32;17.60;99.90
52979;DHT22;63430;53.186;6.598;2023-05-07T12:02:34;17.70;99.90
52979;DHT22;63430;53.186;6.598;2023-05-07T12:04:38;17.70;99.90
52979;DHT22;63430;53.186;6.598;2023-05-07T12:06:44;17.90;99.90
52979;DHT22;63430;53.186;6.598;2023-05-07T12:08:49;17.90;99.90
52979;DHT22;63430;53.186;6.598;2023-05-07T12:10:52;17.80;99.90
52979;DHT22;63430;53.186;6.598;2023-05-07T12:12:54;17.80;99.90
52979;DHT22;63430;53.186;6.598;2023-05-07T12:14:59;17.80;99.90
52979;DHT22;63430;53.186;6.598;2023-05-07T12:17:04;17.90;99.90
52979;DHT22;63430;53.186;6.598;2023-05-07T12:19:08;18.00;99.90
52979;DHT22;63430;53.186;6.598;2023-05-07T12:21:17;17.90;99.90
52979;DHT22;63430;53.186;6.598;2023-05-07T12:23:21;17.90;99.90
52979;DHT22;63430;53.186;6.598;2023-05-07T12:25:26;17.70;99.90
52979;DHT22;63430;53.186;6.598;2023-05-07T12:27:29;17.60;99.90
52979;DHT22;63430;53.186;6.598;2023-05-07T12:29:33;17.60;99.90
52979;DHT22;63430;53.186;6.598;2023-05-07T12:31:36;17.60;99.90
52979;DHT22;63430;53.186;6.598;2023-05-07T12:33:40;17.70;99.90
52979;DHT22;63430;53.186;6.598;2023-05-07T12:35:43;17.70;99.90
52979;DHT22;63430;53.186;6.598;2023-05-07T12:37:54;17.80;99.90
52979;DHT22;63430;53.186;6.598;2023-05-07T12:40:06;17.90;99.90
52979;DHT22;63430;53.186;6.598;2023-05-07T12:42:15;17.90;99.90
52979;DHT22;63430;53.186;6.598;2023-05-07T12:44:17;18.00;99.90
52979;DHT22;63430;53.186;6.598;2023-05-07T12:46:20;18.20;99.90
52979;DHT22;63430;53.186;6.598;2023-05-07T12:48:23;18.30;99.90
52979;DHT22;63430;53.186;6.598;2023-05-07T12:50:31;18.40;99.90
52979;DHT22;63430;53.186;6.598;2023-05-07T12:52:35;18.20;99.90
52979;DHT22;63430;53.186;6.598;2023-05-07T12:54:39;18.20;99.90
52979;DHT22;63430;53.186;6.598;2023-05-07T12:56:42;18.20;99.90
52979;DHT22;63430;53.186;6.598;2023-05-07T12:58:49;18.20;99.90
52979;DHT22;63430;53.186;6.598;2023-05-07T13:00:55;18.20;99.90
52979;DHT22;63430;53.186;6.598;2023-05-07T13:03:02;18.40;99.90
52979;DHT22;63430;53.186;6.598;2023-05-07T13:05:09;18.50;99.90
52979;DHT22;63430;53.186;6.598;2023-05-07T13:07:12;18.50;99.90
52979;DHT22;63430;53.186;6.598;2023-05-07T13:09:18;18.60;99.90
52979;DHT22;63430;53.186;6.598;2023-05-07T13:11:23;19.00;99.90
52979;DHT22;63430;53.186;6.598;2023-05-07T13:13:26;18.80;99.90